createdAt,value
2018-07-01T00:00:40.119Z,102873.25
2018-07-01T00:03:08.125Z,102874.70
2018-07-01T00:05:35.795Z,102872.56
2018-07-01T00:08:03.622Z,102873.13
2018-07-01T00:10:31.465Z,102878.55
2018-07-01T00:12:59.117Z,102876.89
2018-07-01T00:15:26.850Z,102883.64
2018-07-01T00:17:54.785Z,102881.05
2018-07-01T00:20:22.445Z,102882.95
2018-07-01T00:22:50.139Z,102881.25
2018-07-01T00:25:17.971Z,102885.33
2018-07-01T00:27:45.602Z,102886.33
2018-07-01T00:30:13.405Z,102878.00
2018-07-01T00:32:41.090Z,102879.41
2018-07-01T00:35:08.704Z,102880.86
2018-07-01T00:37:36.340Z,102877.86
2018-07-01T00:40:04.323Z,102881.52
2018-07-01T00:42:32.014Z,102884.67
2018-07-01T00:44:59.706Z,102883.45
2018-07-01T00:47:27.541Z,102872.42
2018-07-01T00:49:55.111Z,102875.16
2018-07-01T00:52:22.792Z,102875.23
2018-07-01T00:54:50.577Z,102889.11
2018-07-01T00:57:18.223Z,102894.04
2018-07-01T00:59:45.923Z,102892.81
2018-07-01T01:02:13.723Z,102888.88
2018-07-01T01:04:41.500Z,102894.76
2018-07-01T01:07:09.292Z,102890.83
2018-07-01T01:09:36.980Z,102894.86
2018-07-01T01:12:04.708Z,102886.12
2018-07-01T01:14:32.574Z,102883.52
2018-07-01T01:17:00.456Z,102882.66
2018-07-01T01:19:28.164Z,102880.48
2018-07-01T01:21:55.917Z,102883.25
2018-07-01T01:24:23.683Z,102882.39
2018-07-01T01:26:51.567Z,102882.87
2018-07-01T01:29:19.330Z,102892.26
2018-07-01T01:31:47.174Z,102889.22
2018-07-01T01:34:14.909Z,102891.47
2018-07-01T01:36:43.255Z,102891.98
2018-07-01T01:39:16.385Z,102890.27
2018-07-01T01:41:55.925Z,102889.41
2018-07-01T01:44:34.073Z,102897.02
2018-07-01T01:47:10.467Z,102905.97
2018-07-01T01:49:43.603Z,102906.03
2018-07-01T01:52:33.016Z,102898.10
2018-07-01T01:55:07.000Z,102902.98
2018-07-01T01:57:56.407Z,102908.81
2018-07-01T02:00:42.506Z,102903.55
2018-07-01T02:03:15.073Z,102911.06
2018-07-01T02:05:47.712Z,102910.66
2018-07-01T02:08:22.464Z,102912.42
2018-07-01T02:10:50.367Z,102920.00
2018-07-01T02:13:18.211Z,102922.70
2018-07-01T02:15:49.441Z,102922.25
2018-07-01T02:18:17.181Z,102922.25
2018-07-01T02:20:44.976Z,102929.77
2018-07-01T02:23:17.675Z,102923.55
2018-07-01T02:25:45.712Z,102921.30
2018-07-01T02:28:13.358Z,102929.70
2018-07-01T02:30:41.101Z,102928.34
2018-07-01T02:33:09.049Z,102928.31
2018-07-01T02:35:36.692Z,102927.84
2018-07-01T02:38:04.542Z,102925.15
2018-07-01T02:40:32.668Z,102924.22
2018-07-01T02:43:00.437Z,102920.20
2018-07-01T02:45:28.058Z,102917.98
2018-07-01T02:47:55.967Z,102922.39
2018-07-01T02:50:23.634Z,102920.59
2018-07-01T02:52:51.284Z,102920.97
2018-07-01T02:55:19.238Z,102920.49
2018-07-01T02:57:46.927Z,102918.65
2018-07-01T03:00:14.725Z,102921.70
2018-07-01T03:02:42.783Z,102923.41
2018-07-01T03:05:10.464Z,102924.23
2018-07-01T03:07:39.228Z,102924.17
2018-07-01T03:10:07.174Z,102928.55
2018-07-01T03:12:34.743Z,102926.73
2018-07-01T03:15:02.372Z,102926.23
2018-07-01T03:17:30.518Z,102930.16
2018-07-01T03:19:58.213Z,102923.43
2018-07-01T03:22:25.813Z,102924.66
2018-07-01T03:24:53.806Z,102925.01
2018-07-01T03:27:21.392Z,102930.23
2018-07-01T03:29:49.072Z,102925.72
2018-07-01T03:32:17.133Z,102922.06
2018-07-01T03:34:44.778Z,102929.07
2018-07-01T03:37:12.445Z,102928.05
2018-07-01T03:39:40.352Z,102927.53
2018-07-01T03:42:07.998Z,102938.94
2018-07-01T03:44:35.629Z,102932.17
2018-07-01T03:47:03.932Z,102940.95
2018-07-01T03:49:31.592Z,102939.03
2018-07-01T03:51:59.242Z,102947.33
2018-07-01T03:54:27.433Z,102945.36
2018-07-01T03:56:55.085Z,102944.28
2018-07-01T03:59:22.787Z,102944.09
2018-07-01T04:01:51.018Z,102945.23
2018-07-01T04:04:18.753Z,102946.34
2018-07-01T04:06:46.431Z,102945.22
2018-07-01T04:09:14.530Z,102948.61
2018-07-01T04:11:42.256Z,102954.64
2018-07-01T04:14:09.891Z,102952.22
2018-07-01T04:16:38.505Z,102953.78
2018-07-01T04:19:06.178Z,102954.91
2018-07-01T04:21:33.799Z,102957.77
2018-07-01T04:24:01.756Z,102961.96
2018-07-01T04:26:29.400Z,102960.86
2018-07-01T04:28:57.093Z,102953.95
2018-07-01T04:31:25.233Z,102962.11
2018-07-01T04:33:52.873Z,102959.61
2018-07-01T04:36:20.618Z,102959.78
2018-07-01T04:38:48.715Z,102955.45
2018-07-01T04:41:16.336Z,102959.17
2018-07-01T04:43:44.306Z,102962.94
2018-07-01T04:46:12.173Z,102958.20
2018-07-01T04:48:39.760Z,102842.38
2018-07-01T04:51:07.419Z,102958.05
2018-07-01T04:53:35.205Z,102959.14
2018-07-01T04:56:03.002Z,102953.98
2018-07-01T04:58:30.582Z,102958.58
2018-07-01T05:00:58.643Z,102960.55
2018-07-01T05:03:27.008Z,102950.41
2018-07-01T05:05:54.637Z,102950.54
2018-07-01T05:08:22.643Z,102956.03
2018-07-01T05:10:50.539Z,102951.29
2018-07-01T05:13:19.141Z,102956.88
2018-07-01T05:15:47.196Z,102950.34
2018-07-01T05:18:14.851Z,102955.84
2018-07-01T05:20:42.462Z,102954.25
2018-07-01T05:23:11.540Z,102950.45
2018-07-01T05:25:39.173Z,102948.84
2018-07-01T05:28:06.864Z,102949.00
2018-07-01T05:30:34.929Z,102954.12
2018-07-01T05:33:02.551Z,102952.48
2018-07-01T05:35:30.203Z,102947.72
2018-07-01T05:37:58.250Z,102952.78
2018-07-01T05:40:25.900Z,102948.95
2018-07-01T05:42:53.483Z,102958.50
2018-07-01T05:45:21.670Z,102954.66
2018-07-01T05:47:49.251Z,102952.13
2018-07-01T05:50:16.985Z,102950.09
2018-07-01T05:52:45.149Z,102957.84
2018-07-01T05:55:13.299Z,102949.08
2018-07-01T05:57:41.006Z,102951.91
2018-07-01T06:00:09.341Z,102954.34
2018-07-01T06:02:37.767Z,102961.20
2018-07-01T06:05:05.588Z,102963.54
2018-07-01T06:07:33.498Z,102966.43
2018-07-01T06:10:01.175Z,102967.91
2018-07-01T06:12:28.903Z,102968.08
2018-07-01T06:14:56.746Z,102970.02
2018-07-01T06:17:24.480Z,102967.45
2018-07-01T06:19:52.194Z,102970.77
2018-07-01T06:22:20.183Z,102970.01
2018-07-01T06:24:47.825Z,102972.36
2018-07-01T06:27:15.505Z,102976.09
2018-07-01T06:29:43.388Z,102981.98
2018-07-01T06:32:11.029Z,102983.94
2018-07-01T06:34:38.661Z,102983.20
2018-07-01T06:37:06.780Z,102979.29
2018-07-01T06:39:34.435Z,102981.17
2018-07-01T06:42:02.093Z,102988.64
2018-07-01T06:44:30.078Z,102980.29
2018-07-01T06:46:57.756Z,102983.55
2018-07-01T06:49:25.469Z,102987.23
2018-07-01T06:51:54.142Z,102984.18
2018-07-01T06:54:21.824Z,102975.25
2018-07-01T06:56:49.716Z,102970.45
2018-07-01T06:59:17.641Z,102978.17
2018-07-01T07:01:45.288Z,102981.45
2018-07-01T07:04:13.085Z,102975.77
2018-07-01T07:06:41.211Z,102972.77
2018-07-01T07:09:10.468Z,102965.81
2018-07-01T07:11:38.417Z,102976.68
2018-07-01T07:14:06.743Z,102974.64
2018-07-01T07:16:34.400Z,102971.64
2018-07-01T07:19:02.181Z,102973.11
2018-07-01T07:21:30.095Z,102969.61
2018-07-01T07:23:57.971Z,102971.84
2018-07-01T07:26:25.712Z,102975.11
2018-07-01T07:28:53.937Z,102982.37
2018-07-01T07:31:21.919Z,102981.18
2018-07-01T07:33:49.604Z,102976.43
2018-07-01T07:36:17.690Z,102971.68
2018-07-01T07:38:45.343Z,102931.42
2018-07-01T07:41:12.918Z,102973.52
2018-07-01T07:43:41.004Z,102976.52
2018-07-01T07:46:08.611Z,102978.59
2018-07-01T07:48:36.525Z,102983.17
2018-07-01T07:51:04.560Z,102982.92
2018-07-01T07:53:32.222Z,102975.94
2018-07-01T07:55:59.859Z,102984.59
2018-07-01T07:58:28.695Z,102979.36
2018-07-01T08:00:56.365Z,102979.89
2018-07-01T08:03:23.996Z,102979.17
2018-07-01T08:05:51.834Z,102975.25
2018-07-01T08:08:19.515Z,102980.73
2018-07-01T08:10:47.199Z,102978.25
2018-07-01T08:13:15.266Z,102982.63
2018-07-01T08:15:43.208Z,102976.09
2018-07-01T08:18:10.904Z,102985.88
2018-07-01T08:20:38.694Z,102983.02
2018-07-01T08:23:06.330Z,102981.41
2018-07-01T08:25:34.032Z,102971.41
2018-07-01T08:28:01.801Z,102973.47
2018-07-01T08:30:29.482Z,102973.67
2018-07-01T08:32:57.265Z,102970.72
2018-07-01T08:35:25.140Z,102970.96
2018-07-01T08:37:52.792Z,102970.70
2018-07-01T08:40:20.571Z,102969.94
2018-07-01T08:42:48.362Z,102970.64
2018-07-01T08:45:16.027Z,102965.86
2018-07-01T08:47:43.652Z,102954.78
2018-07-01T08:50:11.261Z,102959.42
2018-07-01T08:52:39.001Z,102961.48
2018-07-01T08:55:06.729Z,102959.86
2018-07-01T08:57:34.823Z,102959.59
2018-07-01T09:00:02.446Z,102963.38
2018-07-01T09:02:30.453Z,102964.47
2018-07-01T09:04:58.283Z,102778.59
2018-07-01T09:07:25.873Z,102958.70
2018-07-01T09:09:53.507Z,102956.23
2018-07-01T09:12:21.255Z,102953.75
2018-07-01T09:14:48.862Z,102957.45
2018-07-01T09:17:16.785Z,102964.34
2018-07-01T09:19:44.412Z,102954.10
2018-07-01T09:22:12.068Z,102952.28
2018-07-01T09:24:39.728Z,102952.70
2018-07-01T09:27:08.576Z,102957.66
2018-07-01T09:29:40.853Z,102948.31
2018-07-01T09:32:08.822Z,102942.98
2018-07-01T09:34:36.608Z,102949.00
2018-07-01T09:37:04.472Z,102948.05
2018-07-01T09:39:32.276Z,102941.28
2018-07-01T09:41:59.876Z,102942.53
2018-07-01T09:44:27.561Z,102934.93
2018-07-01T09:46:55.599Z,102928.36
2018-07-01T09:49:23.197Z,102929.42
2018-07-01T09:51:50.845Z,102928.34
2018-07-01T09:54:18.658Z,102930.56
2018-07-01T09:56:46.258Z,102928.31
2018-07-01T09:59:14.052Z,102925.48
2018-07-01T10:01:42.029Z,102926.49
2018-07-01T10:04:09.656Z,102923.27
2018-07-01T10:06:37.294Z,102924.48
2018-07-01T10:09:08.110Z,102920.09
2018-07-01T10:11:36.029Z,102915.26
2018-07-01T10:14:04.102Z,102914.70
2018-07-01T10:16:32.227Z,102917.44
2018-07-01T10:19:00.029Z,102913.80
2018-07-01T10:21:27.709Z,102910.59
2018-07-01T10:23:55.549Z,102918.84
2018-07-01T10:26:23.150Z,102833.96
2018-07-01T10:29:11.520Z,102911.98
2018-07-01T10:31:39.783Z,102907.87
2018-07-01T10:34:08.508Z,102902.45
2018-07-01T10:36:36.182Z,102901.63
2018-07-01T10:39:09.783Z,102900.30
2018-07-01T10:41:37.560Z,102901.03
2018-07-01T10:44:05.160Z,102897.18
2018-07-01T10:46:32.945Z,102893.21
2018-07-01T10:49:00.978Z,102891.97
2018-07-01T10:51:28.667Z,102894.05
2018-07-01T10:53:56.308Z,102894.08
2018-07-01T10:56:24.077Z,102894.67
2018-07-01T10:58:51.734Z,102892.30
2018-07-01T11:01:19.363Z,102888.44
2018-07-01T11:03:47.258Z,102887.81
2018-07-01T11:06:14.930Z,102887.16
2018-07-01T11:08:42.554Z,102894.37
2018-07-01T11:11:10.648Z,102893.38
2018-07-01T11:13:38.299Z,102897.11
2018-07-01T11:16:06.043Z,102888.66
2018-07-01T11:18:33.943Z,102887.81
2018-07-01T11:21:02.037Z,102889.70
2018-07-01T11:23:29.698Z,102888.56
2018-07-01T11:25:58.536Z,102885.44
2018-07-01T11:28:26.200Z,102878.62
2018-07-01T11:30:53.999Z,102874.30
2018-07-01T11:33:21.859Z,102876.89
2018-07-01T11:35:49.521Z,102878.26
2018-07-01T11:38:17.268Z,102880.50
2018-07-01T11:40:45.122Z,102878.65
2018-07-01T11:43:12.808Z,102871.31
2018-07-01T11:45:40.419Z,102869.81
2018-07-01T11:48:08.169Z,102870.43
2018-07-01T11:50:35.776Z,102859.73
2018-07-01T11:53:03.621Z,102860.48
2018-07-01T11:55:32.624Z,102861.10
2018-07-01T11:58:00.238Z,102861.98
2018-07-01T12:00:27.951Z,102857.40
2018-07-01T12:02:55.805Z,102852.66
2018-07-01T12:05:23.686Z,102852.16
2018-07-01T12:07:51.321Z,102852.03
2018-07-01T12:10:19.174Z,102850.92
2018-07-01T12:12:46.977Z,102857.48
2018-07-01T12:15:14.878Z,102851.02
2018-07-01T12:17:42.759Z,102844.33
2018-07-01T12:20:10.346Z,102839.22
2018-07-01T12:22:38.101Z,102838.73
2018-07-01T12:25:06.221Z,102848.29
2018-07-01T12:27:33.854Z,102847.80
2018-07-01T12:30:02.254Z,102847.28
2018-07-01T12:32:31.032Z,102845.56
2018-07-01T12:34:58.646Z,102850.66
2018-07-01T12:37:26.366Z,102843.09
2018-07-01T12:39:54.210Z,102847.19
2018-07-01T12:42:21.866Z,102844.33
2018-07-01T12:44:49.520Z,102841.95
2018-07-01T12:47:17.405Z,102830.81
2018-07-01T12:49:45.923Z,102829.70
2018-07-01T12:52:13.587Z,102828.34
2018-07-01T12:54:41.360Z,102827.86
2018-07-01T12:57:08.939Z,102833.31
2018-07-01T12:59:36.558Z,102836.41
2018-07-01T13:02:04.438Z,102829.31
2018-07-01T13:04:32.149Z,102730.67
2018-07-01T13:06:59.791Z,102823.63
2018-07-01T13:09:27.712Z,102821.12
2018-07-01T13:11:55.584Z,102824.38
2018-07-01T13:14:23.136Z,102825.36
2018-07-01T13:16:51.026Z,102823.89
2018-07-01T13:19:18.880Z,102826.76
2018-07-01T13:21:46.647Z,102819.84
2018-07-01T13:24:14.466Z,102813.90
2018-07-01T13:26:42.223Z,102810.95
2018-07-01T13:29:09.874Z,102814.71
2018-07-01T13:31:37.737Z,102821.66
2018-07-01T13:34:05.580Z,102817.22
2018-07-01T13:36:33.302Z,102812.18
2018-07-01T13:39:01.269Z,102808.85
2018-07-01T13:41:29.015Z,102813.70
2018-07-01T13:43:56.721Z,102807.50
2018-07-01T13:46:24.618Z,102807.34
2018-07-01T13:48:52.291Z,102799.91
2018-07-01T13:51:19.893Z,102802.29
2018-07-01T13:53:47.804Z,102804.62
2018-07-01T13:56:15.559Z,102798.80
2018-07-01T13:58:43.159Z,102798.78
2018-07-01T14:01:10.937Z,102802.59
2018-07-01T14:03:38.603Z,102799.97
2018-07-01T14:06:06.362Z,102807.70
2018-07-01T14:08:34.605Z,102808.17
2018-07-01T14:11:02.308Z,102806.16
2018-07-01T14:13:29.955Z,102797.59
2018-07-01T14:15:57.881Z,102792.63
2018-07-01T14:18:25.483Z,102792.70
2018-07-01T14:20:53.392Z,102797.53
2018-07-01T14:23:21.120Z,102797.48
2018-07-01T14:25:48.899Z,102788.06
2018-07-01T14:28:16.606Z,102785.02
2018-07-01T14:30:44.479Z,102789.31
2018-07-01T14:33:12.133Z,102787.16
2018-07-01T14:35:39.834Z,102787.98
2018-07-01T14:38:07.589Z,102788.45
2018-07-01T14:40:35.361Z,102782.70
2018-07-01T14:43:02.964Z,102777.47
2018-07-01T14:45:30.860Z,102773.45
2018-07-01T14:47:58.595Z,102772.94
2018-07-01T14:50:27.139Z,102770.45
2018-07-01T14:52:55.188Z,102765.35
2018-07-01T14:55:22.866Z,102768.77
2018-07-01T14:57:50.426Z,102759.49
2018-07-01T15:00:18.449Z,102758.91
2018-07-01T15:02:46.187Z,102774.07
2018-07-01T15:05:14.791Z,102756.16
2018-07-01T15:07:43.084Z,102750.19
2018-07-01T15:10:10.711Z,102752.76
2018-07-01T15:12:38.335Z,102758.41
2018-07-01T15:15:06.130Z,102749.13
2018-07-01T15:17:33.787Z,102747.34
2018-07-01T15:20:02.616Z,102749.17
2018-07-01T15:22:31.212Z,102747.34
2018-07-01T15:24:58.795Z,102743.63
2018-07-01T15:27:26.788Z,102744.77
2018-07-01T15:29:54.769Z,102736.91
2018-07-01T15:32:22.425Z,102738.05
2018-07-01T15:34:50.076Z,102743.62
2018-07-01T15:37:17.987Z,102739.08
2018-07-01T15:39:45.675Z,102741.79
2018-07-01T15:42:14.444Z,102663.95
2018-07-01T15:44:43.093Z,102741.79
2018-07-01T15:47:10.725Z,102739.80
2018-07-01T15:49:38.419Z,102740.47
2018-07-01T15:52:06.230Z,102742.84
2018-07-01T15:54:33.906Z,102743.02
2018-07-01T15:57:02.479Z,102738.84
2018-07-01T15:59:31.928Z,102736.89
2018-07-01T16:01:59.687Z,102736.19
2018-07-01T16:04:27.299Z,102739.66
2018-07-01T16:06:55.250Z,102735.95
2018-07-01T16:09:22.871Z,102747.19
2018-07-01T16:11:50.597Z,102745.23
2018-07-01T16:14:18.335Z,102742.30
2018-07-01T16:16:45.932Z,102741.70
2018-07-01T16:19:13.594Z,102741.59
2018-07-01T16:21:41.620Z,102739.33
2018-07-01T16:24:09.233Z,102739.27
2018-07-01T16:26:42.381Z,102743.20
2018-07-01T16:29:10.623Z,102741.97
2018-07-01T16:31:38.247Z,102730.05
2018-07-01T16:34:05.887Z,102732.33
2018-07-01T16:36:33.784Z,102729.80
2018-07-01T16:39:01.390Z,102728.78
2018-07-01T16:41:29.040Z,102718.84
2018-07-01T16:43:57.007Z,102716.20
2018-07-01T16:46:24.691Z,102715.65
2018-07-01T16:48:52.322Z,102714.03
2018-07-01T16:51:20.418Z,102711.51
2018-07-01T16:53:48.101Z,102708.91
2018-07-01T16:56:15.765Z,102708.05
2018-07-01T16:58:43.968Z,102706.04
2018-07-01T17:01:11.610Z,102705.01
2018-07-01T17:03:39.683Z,102699.44
2018-07-01T17:06:07.482Z,102705.55
2018-07-01T17:08:35.114Z,102697.81
2018-07-01T17:11:02.801Z,102698.13
2018-07-01T17:13:30.565Z,102698.94
2018-07-01T17:15:58.251Z,102693.68
2018-07-01T17:18:25.925Z,102694.00
2018-07-01T17:20:53.701Z,102692.08
2018-07-01T17:23:21.323Z,102690.56
2018-07-01T17:25:52.902Z,102693.59
2018-07-01T17:28:23.580Z,102684.39
2018-07-01T17:30:57.456Z,102685.22
2018-07-01T17:33:25.894Z,102681.84
2018-07-01T17:35:53.914Z,102675.96
2018-07-01T17:38:21.746Z,102674.18
2018-07-01T17:40:49.529Z,102679.03
2018-07-01T17:43:17.132Z,102677.98
2018-07-01T17:45:44.952Z,102686.53
2018-07-01T17:48:12.858Z,102680.87
2018-07-01T17:50:40.448Z,102681.48
2018-07-01T17:53:09.201Z,102682.95
2018-07-01T17:55:37.056Z,102675.88
2018-07-01T17:58:04.694Z,102674.25
2018-07-01T18:00:32.907Z,102668.16
2018-07-01T18:03:01.649Z,102670.13
2018-07-01T18:05:29.382Z,102669.82
2018-07-01T18:07:57.921Z,102663.66
2018-07-01T18:10:25.983Z,102669.17
2018-07-01T18:12:53.617Z,102656.69
2018-07-01T18:15:21.305Z,102656.90
2018-07-01T18:17:49.103Z,102650.44
2018-07-01T18:20:16.812Z,102648.50
2018-07-01T18:23:09.762Z,102647.86
2018-07-01T18:25:12.837Z,102651.72
2018-07-01T18:27:44.762Z,102652.33
2018-07-01T18:30:11.346Z,102654.36
2018-07-01T18:32:39.854Z,102661.42
2018-07-01T18:35:07.480Z,102658.14
2018-07-01T18:37:35.206Z,102541.80
2018-07-01T18:40:03.059Z,102656.30
2018-07-01T18:42:30.730Z,102650.24
2018-07-01T18:44:58.628Z,102656.70
2018-07-01T18:47:26.287Z,102654.80
2018-07-01T18:49:54.539Z,102651.41
2018-07-01T18:52:22.162Z,102660.09
2018-07-01T18:54:49.954Z,102650.82
2018-07-01T18:57:18.166Z,102650.04
2018-07-01T18:59:45.802Z,102651.97
2018-07-01T19:02:13.729Z,102651.75
2018-07-01T19:04:41.415Z,102650.22
2018-07-01T19:07:09.201Z,102656.70
2018-07-01T19:09:37.072Z,102651.96
2018-07-01T19:12:04.743Z,102647.13
2018-07-01T19:14:32.641Z,102647.31
2018-07-01T19:17:00.486Z,102656.97
2018-07-01T19:19:28.207Z,102657.27
2018-07-01T19:21:56.031Z,102655.31
2018-07-01T19:24:24.128Z,102650.10
2018-07-01T19:26:51.732Z,102650.89
2018-07-01T19:29:19.545Z,102649.92
2018-07-01T19:31:47.242Z,102650.67
2018-07-01T19:34:15.080Z,102651.94
2018-07-01T19:36:42.716Z,102649.52
2018-07-01T19:39:11.070Z,102648.91
2018-07-01T19:41:38.772Z,102652.38
2018-07-01T19:44:06.452Z,102651.67
2018-07-01T19:46:34.234Z,102662.38
2018-07-01T19:49:01.819Z,102659.08
2018-07-01T19:51:30.660Z,102668.68
2018-07-01T19:53:58.550Z,102667.23
2018-07-01T19:56:26.332Z,102670.67
2018-07-01T19:58:53.988Z,102669.22
2018-07-01T20:01:21.622Z,102670.34
2018-07-01T20:03:49.313Z,102671.95
2018-07-01T20:06:20.424Z,102569.31
2018-07-01T20:08:48.113Z,102673.00
2018-07-01T20:11:16.537Z,102673.73
2018-07-01T20:13:44.134Z,102672.33
2018-07-01T20:16:12.127Z,102666.34
2018-07-01T20:18:39.771Z,102662.74
2018-07-01T20:21:07.504Z,102667.05
2018-07-01T20:23:35.313Z,102666.52
2018-07-01T20:26:02.905Z,102666.55
2018-07-01T20:28:30.637Z,102664.20
2018-07-01T20:30:58.439Z,102667.73
2018-07-01T20:33:26.034Z,102666.28
2018-07-01T20:35:53.863Z,102676.48
2018-07-01T20:38:21.622Z,102674.59
2018-07-01T20:40:49.317Z,102671.81
2018-07-01T20:43:17.101Z,102678.89
2018-07-01T20:45:44.738Z,102682.88
2018-07-01T20:48:12.277Z,102680.98
2018-07-01T20:50:40.343Z,102683.70
2018-07-01T20:53:09.053Z,102685.38
2018-07-01T20:55:36.813Z,102686.25
2018-07-01T20:58:04.553Z,102684.84
2018-07-01T21:00:32.338Z,102680.80
2018-07-01T21:02:59.929Z,102682.62
2018-07-01T21:05:27.719Z,102682.05
2018-07-01T21:07:55.487Z,102680.06
2018-07-01T21:10:23.118Z,102681.64
2018-07-01T21:12:51.380Z,102677.97
2018-07-01T21:15:19.113Z,102682.73
2018-07-01T21:17:46.710Z,102673.47
2018-07-01T21:22:42.641Z,102675.82
2018-07-01T21:25:10.302Z,102669.41
2018-07-01T21:27:37.964Z,102667.95
2018-07-01T21:30:06.129Z,102671.75
2018-07-01T21:32:34.710Z,102668.82
2018-07-01T21:35:02.458Z,102669.44
2018-07-01T21:37:30.630Z,102667.36
2018-07-01T21:39:58.266Z,102667.13
2018-07-01T21:42:25.956Z,102664.59
2018-07-01T21:44:54.510Z,102670.11
2018-07-01T21:47:22.158Z,102665.34
2018-07-01T21:49:49.776Z,102661.92
2018-07-01T21:52:18.418Z,102662.64
2018-07-01T21:54:46.056Z,102661.45
2018-07-01T21:57:13.843Z,102664.36
2018-07-01T21:59:41.592Z,102665.03
2018-07-01T22:02:09.203Z,102672.05
2018-07-01T22:04:37.133Z,102661.06
2018-07-01T22:07:04.853Z,102668.00
2018-07-01T22:09:32.499Z,102681.19
2018-07-01T22:12:11.321Z,102666.16
2018-07-01T22:14:50.285Z,102674.52
2018-07-01T22:17:18.181Z,102670.34
2018-07-01T22:19:45.955Z,102673.38
2018-07-01T22:22:13.678Z,102671.44
2018-07-01T22:24:41.615Z,102669.52
2018-07-01T22:27:09.216Z,102668.84
2018-07-01T22:29:36.884Z,102671.35
2018-07-01T22:32:04.859Z,102667.10
2018-07-01T22:34:33.165Z,102668.26
2018-07-01T22:37:00.845Z,102670.33
2018-07-01T22:39:30.015Z,102667.92
2018-07-01T22:41:58.800Z,102674.50
2018-07-01T22:44:26.929Z,102671.66
2018-07-01T22:46:54.958Z,102661.33
2018-07-01T22:49:22.697Z,102671.92
2018-07-01T22:51:50.390Z,102670.32
2018-07-01T22:54:18.269Z,102674.21
2018-07-01T22:56:45.929Z,102665.54
2018-07-01T22:59:13.593Z,102661.31
2018-07-01T23:03:48.711Z,102649.14
2018-07-01T23:06:16.433Z,102647.98
2018-07-01T23:08:44.236Z,102643.91
2018-07-01T23:11:12.185Z,102609.61
2018-07-01T23:13:39.898Z,102641.27
2018-07-01T23:16:07.862Z,102641.52
2018-07-01T23:18:35.675Z,102641.27
2018-07-01T23:21:03.364Z,102642.84
2018-07-01T23:23:31.188Z,102640.91
2018-07-01T23:25:58.986Z,102641.53
2018-07-01T23:28:26.688Z,102641.32
2018-07-01T23:30:54.593Z,102641.06
2018-07-01T23:33:22.568Z,102634.09
2018-07-01T23:35:50.222Z,102637.01
2018-07-01T23:38:17.908Z,102640.71
2018-07-01T23:40:46.110Z,102638.66
2018-07-01T23:43:13.788Z,102640.17
2018-07-01T23:45:41.740Z,102635.05
2018-07-01T23:48:09.572Z,102632.05
2018-07-01T23:50:37.154Z,102628.27
2018-07-01T23:53:05.184Z,102626.22
2018-07-01T23:55:32.961Z,102632.17
2018-07-01T23:58:00.668Z,102629.18
